sensor_id;sensor_type;location;lat;lon;timestamp;pressure;altitude;pressure_sealevel;temperature;humidity
26487;BME280;14425;56.136;40.360;2022-07-10T00:01:12;99212.22;;;19.51;100.00
26487;BME280;14425;56.136;40.360;2022-07-10T00:03:38;99214.03;;;19.41;100.00
26487;BME280;14425;56.136;40.360;2022-07-10T00:06:04;99197.50;;;19.37;100.00
26487;BME280;14425;56.136;40.360;2022-07-10T00:08:30;99203.56;;;19.38;100.00
26487;BME280;14425;56.136;40.360;2022-07-10T00:10:55;99205.28;;;19.42;100.00
26487;BME280;14425;56.136;40.360;2022-07-10T00:13:21;99214.09;;;19.30;100.00
26487;BME280;14425;56.136;40.360;2022-07-10T00:15:47;99203.69;;;19.23;100.00
26487;BME280;14425;56.136;40.360;2022-07-10T00:18:13;99206.25;;;19.26;100.00
26487;BME280;14425;56.136;40.360;2022-07-10T00:20:38;99209.78;;;19.25;100.00
26487;BME280;14425;56.136;40.360;2022-07-10T00:23:05;99205.41;;;19.22;100.00
26487;BME280;14425;56.136;40.360;2022-07-10T00:25:31;99207.19;;;19.22;100.00
26487;BME280;14425;56.136;40.360;2022-07-10T00:27:57;99201.09;;;19.18;100.00
26487;BME280;14425;56.136;40.360;2022-07-10T00:30:22;99194.13;;;19.17;100.00
26487;BME280;14425;56.136;40.360;2022-07-10T00:32:49;99188.88;;;19.22;100.00
26487;BME280;14425;56.136;40.360;2022-07-10T00:35:14;99191.44;;;19.29;100.00
26487;BME280;14425;56.136;40.360;2022-07-10T00:37:40;99201.09;;;19.23;100.00
26487;BME280;14425;56.136;40.360;2022-07-10T00:40:06;99199.31;;;19.28;100.00
26487;BME280;14425;56.136;40.360;2022-07-10T00:42:32;99198.38;;;19.35;100.00
26487;BME280;14425;56.136;40.360;2022-07-10T00:44:58;99204.50;;;19.31;100.00
26487;BME280;14425;56.136;40.360;2022-07-10T00:47:24;99195.75;;;19.33;100.00
26487;BME280;14425;56.136;40.360;2022-07-10T00:49:50;99196.63;;;19.34;100.00
26487;BME280;14425;56.136;40.360;2022-07-10T00:52:17;99193.09;;;19.41;100.00
26487;BME280;14425;56.136;40.360;2022-07-10T00:54:45;99194.88;;;19.36;100.00
26487;BME280;14425;56.136;40.360;2022-07-10T00:57:13;99191.44;;;19.31;100.00
26487;BME280;14425;56.136;40.360;2022-07-10T00:59:40;99196.72;;;19.25;100.00
26487;BME280;14425;56.136;40.360;2022-07-10T01:02:06;99201.06;;;19.24;100.00
26487;BME280;14425;56.136;40.360;2022-07-10T01:04:32;99208.06;;;19.19;100.00
26487;BME280;14425;56.136;40.360;2022-07-10T01:06:59;99215.06;;;19.14;100.00
26487;BME280;14425;56.136;40.360;2022-07-10T01:09:26;99219.50;;;19.02;100.00
26487;BME280;14425;56.136;40.360;2022-07-10T01:11:52;99218.59;;;19.08;100.00
26487;BME280;14425;56.136;40.360;2022-07-10T01:14:18;99206.34;;;19.13;100.00
26487;BME280;14425;56.136;40.360;2022-07-10T01:16:44;99201.94;;;19.22;100.00
26487;BME280;14425;56.136;40.360;2022-07-10T01:19:09;99207.22;;;19.12;100.00
26487;BME280;14425;56.136;40.360;2022-07-10T01:21:36;99209.84;;;19.12;100.00
26487;BME280;14425;56.136;40.360;2022-07-10T01:24:08;99208.16;;;19.05;100.00
26487;BME280;14425;56.136;40.360;2022-07-10T01:26:35;99207.31;;;18.98;100.00
26487;BME280;14425;56.136;40.360;2022-07-10T01:29:07;99210.84;;;18.94;100.00
26487;BME280;14425;56.136;40.360;2022-07-10T01:31:33;99223.00;;;18.98;100.00
26487;BME280;14425;56.136;40.360;2022-07-10T01:34:00;99215.13;;;19.06;100.00
26487;BME280;14425;56.136;40.360;2022-07-10T01:36:28;99219.50;;;19.02;100.00
26487;BME280;14425;56.136;40.360;2022-07-10T01:38:55;99220.41;;;18.91;100.00
26487;BME280;14425;56.136;40.360;2022-07-10T01:41:22;99207.34;;;18.94;100.00
26487;BME280;14425;56.136;40.360;2022-07-10T01:43:49;99211.69;;;18.95;100.00
26487;BME280;14425;56.136;40.360;2022-07-10T01:46:15;99213.41;;;18.99;100.00
26487;BME280;14425;56.136;40.360;2022-07-10T01:48:42;99197.78;;;18.96;100.00
26487;BME280;14425;56.136;40.360;2022-07-10T01:51:09;99193.41;;;18.93;100.00
26487;BME280;14425;56.136;40.360;2022-07-10T01:53:36;99191.66;;;18.97;100.00
26487;BME280;14425;56.136;40.360;2022-07-10T01:56:08;99195.09;;;19.00;100.00
26487;BME280;14425;56.136;40.360;2022-07-10T01:58:35;99206.44;;;19.01;100.00
26487;BME280;14425;56.136;40.360;2022-07-10T02:01:01;99197.78;;;18.90;100.00
26487;BME280;14425;56.136;40.360;2022-07-10T02:03:27;99199.47;;;19.03;100.00
26487;BME280;14425;56.136;40.360;2022-07-10T02:06:11;99194.22;;;19.06;100.00
26487;BME280;14425;56.136;40.360;2022-07-10T02:08:37;99193.31;;;19.10;100.00
26487;BME280;14425;56.136;40.360;2022-07-10T02:11:03;99189.81;;;19.13;100.00
26487;BME280;14425;56.136;40.360;2022-07-10T02:13:29;99200.34;;;18.99;100.00
26487;BME280;14425;56.136;40.360;2022-07-10T02:15:55;99201.25;;;18.95;100.00
26487;BME280;14425;56.136;40.360;2022-07-10T02:18:21;99209.13;;;18.86;100.00
26487;BME280;14425;56.136;40.360;2022-07-10T02:20:47;99211.78;;;18.73;100.00
26487;BME280;14425;56.136;40.360;2022-07-10T02:23:13;99203.94;;;18.75;100.00
26487;BME280;14425;56.136;40.360;2022-07-10T02:25:39;99201.31;;;18.79;100.00
26487;BME280;14425;56.136;40.360;2022-07-10T02:28:05;99202.19;;;18.86;100.00
26487;BME280;14425;56.136;40.360;2022-07-10T02:30:31;99201.28;;;18.86;100.00
26487;BME280;14425;56.136;40.360;2022-07-10T02:32:56;99208.25;;;18.85;100.00
26487;BME280;14425;56.136;40.360;2022-07-10T02:35:22;99212.63;;;18.77;100.00
26487;BME280;14425;56.136;40.360;2022-07-10T02:37:48;99217.81;;;18.89;100.00
26487;BME280;14425;56.136;40.360;2022-07-10T02:40:14;99212.53;;;18.98;100.00
26487;BME280;14425;56.136;40.360;2022-07-10T02:42:40;99211.63;;;19.07;100.00
26487;BME280;14425;56.136;40.360;2022-07-10T02:45:06;99207.28;;;19.06;100.00
26487;BME280;14425;56.136;40.360;2022-07-10T02:47:33;99198.38;;;19.32;100.00
26487;BME280;14425;56.136;40.360;2022-07-10T02:49:59;99197.41;;;19.45;100.00
26487;BME280;14425;56.136;40.360;2022-07-10T02:52:25;99192.09;;;19.57;100.00
26487;BME280;14425;56.136;40.360;2022-07-10T02:54:51;99191.34;;;19.43;100.00
26487;BME280;14425;56.136;40.360;2022-07-10T02:57:17;99188.78;;;19.35;100.00
26487;BME280;14425;56.136;40.360;2022-07-10T02:59:43;99190.41;;;19.50;100.00
26487;BME280;14425;56.136;40.360;2022-07-10T03:02:09;99189.56;;;19.45;100.00
26487;BME280;14425;56.136;40.360;2022-07-10T03:04:35;99186.91;;;19.51;100.00
26487;BME280;14425;56.136;40.360;2022-07-10T03:07:01;99187.91;;;19.38;100.00
26487;BME280;14425;56.136;40.360;2022-07-10T03:09:26;99180.03;;;19.41;100.00
26487;BME280;14425;56.136;40.360;2022-07-10T03:11:52;99182.84;;;19.13;100.00
26487;BME280;14425;56.136;40.360;2022-07-10T03:14:18;99174.03;;;19.27;100.00
26487;BME280;14425;56.136;40.360;2022-07-10T03:16:44;99172.25;;;19.32;100.00
26487;BME280;14425;56.136;40.360;2022-07-10T03:19:10;99178.31;;;19.34;100.00
26487;BME280;14425;56.136;40.360;2022-07-10T03:21:35;99173.06;;;19.37;100.00
26487;BME280;14425;56.136;40.360;2022-07-10T03:24:01;99187.03;;;19.39;100.00
26487;BME280;14425;56.136;40.360;2022-07-10T03:26:27;99176.56;;;19.39;100.00
26487;BME280;14425;56.136;40.360;2022-07-10T03:28:55;99180.56;;;19.82;100.00
26487;BME280;14425;56.136;40.360;2022-07-10T03:31:22;99163.41;;;20.34;100.00
26487;BME280;14425;56.136;40.360;2022-07-10T03:33:48;99168.91;;;20.12;100.00
26487;BME280;14425;56.136;40.360;2022-07-10T03:36:14;99171.59;;;20.06;100.00
26487;BME280;14425;56.136;40.360;2022-07-10T03:38:40;99176.94;;;19.93;100.00
26487;BME280;14425;56.136;40.360;2022-07-10T03:41:06;99175.09;;;20.06;100.00
26487;BME280;14425;56.136;40.360;2022-07-10T03:43:31;99181.81;;;20.30;100.00
26487;BME280;14425;56.136;40.360;2022-07-10T03:45:57;99175.75;;;20.25;100.00
26487;BME280;14425;56.136;40.360;2022-07-10T03:48:23;99168.22;;;20.72;98.15
26487;BME280;14425;56.136;40.360;2022-07-10T03:50:53;99163.94;;;21.26;92.88
26487;BME280;14425;56.136;40.360;2022-07-10T03:53:19;99175.78;;;20.94;95.37
26487;BME280;14425;56.136;40.360;2022-07-10T03:55:45;99166.28;;;20.83;97.05
26487;BME280;14425;56.136;40.360;2022-07-10T03:58:11;99186.38;;;20.84;94.43
26487;BME280;14425;56.136;40.360;2022-07-10T04:00:56;99169.69;;;20.92;90.16
26487;BME280;14425;56.136;40.360;2022-07-10T04:03:22;99164.06;;;21.16;88.78
26487;BME280;14425;56.136;40.360;2022-07-10T04:05:47;99156.84;;;21.32;86.44
26487;BME280;14425;56.136;40.360;2022-07-10T04:08:13;99157.69;;;21.34;86.15
26487;BME280;14425;56.136;40.360;2022-07-10T04:10:39;99158.34;;;21.50;87.57
26487;BME280;14425;56.136;40.360;2022-07-10T04:13:05;99164.28;;;22.08;82.84
26487;BME280;14425;56.136;40.360;2022-07-10T04:15:31;99160.59;;;22.17;81.45
26487;BME280;14425;56.136;40.360;2022-07-10T04:17:57;99157.50;;;22.82;76.59
26487;BME280;14425;56.136;40.360;2022-07-10T04:20:22;99157.09;;;23.01;73.87
26487;BME280;14425;56.136;40.360;2022-07-10T04:22:49;99152.28;;;23.21;73.60
26487;BME280;14425;56.136;40.360;2022-07-10T04:25:15;99154.41;;;22.65;76.79
26487;BME280;14425;56.136;40.360;2022-07-10T04:27:41;99151.63;;;22.71;76.76
26487;BME280;14425;56.136;40.360;2022-07-10T04:30:07;99142.03;;;22.70;76.68
26487;BME280;14425;56.136;40.360;2022-07-10T04:32:32;99147.28;;;22.70;74.87
26487;BME280;14425;56.136;40.360;2022-07-10T04:34:59;99141.81;;;22.79;74.79
26487;BME280;14425;56.136;40.360;2022-07-10T04:37:26;99146.69;;;22.96;73.40
26487;BME280;14425;56.136;40.360;2022-07-10T04:39:53;99145.19;;;23.23;72.49
26487;BME280;14425;56.136;40.360;2022-07-10T04:42:19;99145.88;;;23.32;71.31
26487;BME280;14425;56.136;40.360;2022-07-10T04:44:45;99143.47;;;23.22;68.42
26487;BME280;14425;56.136;40.360;2022-07-10T04:47:10;99136.78;;;23.45;69.23
26487;BME280;14425;56.136;40.360;2022-07-10T04:49:36;99134.75;;;23.56;65.42
26487;BME280;14425;56.136;40.360;2022-07-10T04:52:02;99132.63;;;23.71;64.78
26487;BME280;14425;56.136;40.360;2022-07-10T04:54:28;99133.09;;;23.87;65.62
26487;BME280;14425;56.136;40.360;2022-07-10T04:56:55;99123.88;;;24.03;65.02
26487;BME280;14425;56.136;40.360;2022-07-10T04:59:21;99119.16;;;24.14;65.42
26487;BME280;14425;56.136;40.360;2022-07-10T05:01:46;99115.19;;;24.31;64.96
26487;BME280;14425;56.136;40.360;2022-07-10T05:04:12;99111.41;;;24.40;64.71
26487;BME280;14425;56.136;40.360;2022-07-10T05:06:38;99115.47;;;24.50;63.88
26487;BME280;14425;56.136;40.360;2022-07-10T05:09:04;99107.03;;;24.39;64.71
26487;BME280;14425;56.136;40.360;2022-07-10T05:11:30;99103.78;;;24.60;64.66
26487;BME280;14425;56.136;40.360;2022-07-10T05:13:57;99098.94;;;24.45;62.21
26487;BME280;14425;56.136;40.360;2022-07-10T05:16:23;99092.69;;;24.79;61.69
26487;BME280;14425;56.136;40.360;2022-07-10T05:18:49;99098.22;;;24.69;62.37
26487;BME280;14425;56.136;40.360;2022-07-10T05:21:15;99096.75;;;24.61;62.16
26487;BME280;14425;56.136;40.360;2022-07-10T05:23:41;99099.47;;;24.86;61.93
26487;BME280;14425;56.136;40.360;2022-07-10T05:26:07;99098.13;;;25.01;60.59
26487;BME280;14425;56.136;40.360;2022-07-10T05:28:33;99102.41;;;25.03;61.27
26487;BME280;14425;56.136;40.360;2022-07-10T05:30:59;99096.28;;;25.03;57.84
26487;BME280;14425;56.136;40.360;2022-07-10T05:33:24;99105.84;;;25.07;58.70
26487;BME280;14425;56.136;40.360;2022-07-10T05:35:53;99117.00;;;25.43;58.14
26487;BME280;14425;56.136;40.360;2022-07-10T05:38:19;99108.03;;;25.48;57.41
26487;BME280;14425;56.136;40.360;2022-07-10T05:40:45;99116.75;;;25.50;57.00
26487;BME280;14425;56.136;40.360;2022-07-10T05:43:11;99113.22;;;25.76;57.03
26487;BME280;14425;56.136;40.360;2022-07-10T05:45:38;99111.13;;;25.60;58.52
26487;BME280;14425;56.136;40.360;2022-07-10T05:48:04;99117.69;;;25.49;60.46
26487;BME280;14425;56.136;40.360;2022-07-10T05:50:30;99122.53;;;25.07;65.34
26487;BME280;14425;56.136;40.360;2022-07-10T05:52:56;99116.41;;;25.07;67.33
26487;BME280;14425;56.136;40.360;2022-07-10T05:55:22;99119.88;;;25.07;67.66
26487;BME280;14425;56.136;40.360;2022-07-10T05:57:49;99114.97;;;25.23;66.04
26487;BME280;14425;56.136;40.360;2022-07-10T06:00:16;99117.75;;;25.47;66.22
26487;BME280;14425;56.136;40.360;2022-07-10T06:02:42;99113.41;;;25.44;64.58
26487;BME280;14425;56.136;40.360;2022-07-10T06:05:08;99114.16;;;25.48;62.55
26487;BME280;14425;56.136;40.360;2022-07-10T06:07:35;99116.13;;;25.68;57.25
26487;BME280;14425;56.136;40.360;2022-07-10T06:10:01;99117.72;;;25.99;54.34
26487;BME280;14425;56.136;40.360;2022-07-10T06:12:29;99122.31;;;26.17;55.07
26487;BME280;14425;56.136;40.360;2022-07-10T06:14:55;99114.75;;;26.08;56.49
26487;BME280;14425;56.136;40.360;2022-07-10T06:17:20;99115.50;;;26.12;55.76
26487;BME280;14425;56.136;40.360;2022-07-10T06:19:46;99119.50;;;25.98;57.81
26487;BME280;14425;56.136;40.360;2022-07-10T06:22:12;99115.53;;;26.10;57.37
26487;BME280;14425;56.136;40.360;2022-07-10T06:25:07;99124.53;;;26.30;56.83
26487;BME280;14425;56.136;40.360;2022-07-10T06:27:33;99124.53;;;26.30;55.35
26487;BME280;14425;56.136;40.360;2022-07-10T06:29:59;99123.69;;;26.28;56.45
26487;BME280;14425;56.136;40.360;2022-07-10T06:32:26;99115.31;;;26.64;56.32
26487;BME280;14425;56.136;40.360;2022-07-10T06:34:53;99112.38;;;26.48;56.29
26487;BME280;14425;56.136;40.360;2022-07-10T06:37:19;99112.97;;;26.54;57.22
26487;BME280;14425;56.136;40.360;2022-07-10T06:39:46;99111.19;;;27.01;55.24
26487;BME280;14425;56.136;40.360;2022-07-10T06:42:15;99114.09;;;27.39;53.11
26487;BME280;14425;56.136;40.360;2022-07-10T06:44:44;99108.53;;;27.65;51.56
26487;BME280;14425;56.136;40.360;2022-07-10T06:47:12;99111.19;;;28.07;50.22
26487;BME280;14425;56.136;40.360;2022-07-10T06:49:56;99104.25;;;28.23;48.75
26487;BME280;14425;56.136;40.360;2022-07-10T06:52:23;99107.97;;;28.38;47.84
26487;BME280;14425;56.136;40.360;2022-07-10T06:54:49;99102.97;;;28.13;47.10
26487;BME280;14425;56.136;40.360;2022-07-10T06:57:15;99092.78;;;28.23;46.70
26487;BME280;14425;56.136;40.360;2022-07-10T06:59:43;99094.34;;;28.84;46.83
26487;BME280;14425;56.136;40.360;2022-07-10T07:02:10;99094.13;;;28.88;45.99
26487;BME280;14425;56.136;40.360;2022-07-10T07:04:39;99102.28;;;28.66;42.38
26487;BME280;14425;56.136;40.360;2022-07-10T07:07:05;99108.22;;;29.08;42.73
26487;BME280;14425;56.136;40.360;2022-07-10T07:09:31;99108.91;;;28.75;41.14
26487;BME280;14425;56.136;40.360;2022-07-10T07:11:58;99109.41;;;29.02;41.80
26487;BME280;14425;56.136;40.360;2022-07-10T07:14:23;99116.25;;;29.06;41.81
26487;BME280;14425;56.136;40.360;2022-07-10T07:16:49;99122.50;;;28.69;42.12
26487;BME280;14425;56.136;40.360;2022-07-10T07:19:33;99129.34;;;28.54;42.16
26487;BME280;14425;56.136;40.360;2022-07-10T07:22:18;99142.78;;;27.70;43.15
26487;BME280;14425;56.136;40.360;2022-07-10T07:25:02;99137.38;;;27.92;43.32
26487;BME280;14425;56.136;40.360;2022-07-10T07:27:29;99135.16;;;27.83;43.72
26487;BME280;14425;56.136;40.360;2022-07-10T07:29:55;99128.63;;;28.31;42.45
26487;BME280;14425;56.136;40.360;2022-07-10T07:32:20;99135.69;;;27.91;44.74
26487;BME280;14425;56.136;40.360;2022-07-10T07:34:46;99132.56;;;28.02;44.31
26487;BME280;14425;56.136;40.360;2022-07-10T07:37:12;99122.25;;;27.55;44.55
26487;BME280;14425;56.136;40.360;2022-07-10T07:39:38;99134.63;;;28.16;44.35
26487;BME280;14425;56.136;40.360;2022-07-10T07:42:04;99123.00;;;28.58;43.34
26487;BME280;14425;56.136;40.360;2022-07-10T07:44:30;99110.31;;;29.01;43.06
26487;BME280;14425;56.136;40.360;2022-07-10T07:46:56;99114.50;;;28.50;45.54
26487;BME280;14425;56.136;40.360;2022-07-10T07:49:21;99117.03;;;28.53;44.13
26487;BME280;14425;56.136;40.360;2022-07-10T07:51:47;99121.44;;;28.14;45.21
26487;BME280;14425;56.136;40.360;2022-07-10T07:54:14;99119.03;;;28.48;45.54
26487;BME280;14425;56.136;40.360;2022-07-10T07:56:41;99105.53;;;28.33;45.58
26487;BME280;14425;56.136;40.360;2022-07-10T07:59:06;99112.13;;;28.82;44.84
26487;BME280;14425;56.136;40.360;2022-07-10T08:01:32;99107.84;;;30.03;43.64
26487;BME280;14425;56.136;40.360;2022-07-10T08:03:58;99107.97;;;29.84;42.69
26487;BME280;14425;56.136;40.360;2022-07-10T08:06:24;99105.78;;;29.92;42.57
26487;BME280;14425;56.136;40.360;2022-07-10T08:08:50;99107.81;;;29.17;43.27
26487;BME280;14425;56.136;40.360;2022-07-10T08:11:16;99108.44;;;29.22;43.50
26487;BME280;14425;56.136;40.360;2022-07-10T08:13:42;99106.34;;;29.29;43.83
26487;BME280;14425;56.136;40.360;2022-07-10T08:16:08;99112.88;;;29.39;43.83
26487;BME280;14425;56.136;40.360;2022-07-10T08:18:35;99101.50;;;29.01;44.20
26487;BME280;14425;56.136;40.360;2022-07-10T08:21:10;99105.31;;;29.49;43.85
26487;BME280;14425;56.136;40.360;2022-07-10T08:23:38;99095.06;;;30.43;41.13
26487;BME280;14425;56.136;40.360;2022-07-10T08:26:04;99101.44;;;30.07;41.02
26487;BME280;14425;56.136;40.360;2022-07-10T08:28:30;99101.09;;;30.63;40.67
26487;BME280;14425;56.136;40.360;2022-07-10T08:30:56;99101.16;;;31.39;37.58
26487;BME280;14425;56.136;40.360;2022-07-10T08:33:24;99101.41;;;31.20;36.87
26487;BME280;14425;56.136;40.360;2022-07-10T08:35:56;99092.88;;;31.60;37.91
26487;BME280;14425;56.136;40.360;2022-07-10T08:38:26;99096.47;;;31.59;36.21
26487;BME280;14425;56.136;40.360;2022-07-10T08:40:59;99093.44;;;30.88;36.86
26487;BME280;14425;56.136;40.360;2022-07-10T08:43:28;99087.75;;;30.31;37.62
26487;BME280;14425;56.136;40.360;2022-07-10T08:45:55;99103.59;;;29.65;38.62
26487;BME280;14425;56.136;40.360;2022-07-10T08:48:24;99093.41;;;29.91;39.08
26487;BME280;14425;56.136;40.360;2022-07-10T08:50:53;99103.25;;;30.72;38.20
26487;BME280;14425;56.136;40.360;2022-07-10T08:53:32;99098.72;;;31.95;37.32
26487;BME280;14425;56.136;40.360;2022-07-10T08:55:58;99102.28;;;31.05;37.30
26487;BME280;14425;56.136;40.360;2022-07-10T08:58:26;99111.03;;;30.43;38.34
26487;BME280;14425;56.136;40.360;2022-07-10T09:00:52;99101.50;;;30.39;38.83
26487;BME280;14425;56.136;40.360;2022-07-10T09:03:19;99112.25;;;30.85;38.09
26487;BME280;14425;56.136;40.360;2022-07-10T09:05:45;99116.97;;;30.64;37.87
26487;BME280;14425;56.136;40.360;2022-07-10T09:08:23;99113.88;;;31.20;37.94
26487;BME280;14425;56.136;40.360;2022-07-10T09:10:49;99121.25;;;31.45;37.11
26487;BME280;14425;56.136;40.360;2022-07-10T09:13:16;99124.22;;;31.85;35.90
26487;BME280;14425;56.136;40.360;2022-07-10T09:15:48;99121.50;;;30.94;35.67
26487;BME280;14425;56.136;40.360;2022-07-10T09:18:18;99126.13;;;31.83;35.74
26487;BME280;14425;56.136;40.360;2022-07-10T09:20:45;99129.00;;;30.55;37.75
26487;BME280;14425;56.136;40.360;2022-07-10T09:23:20;99119.72;;;30.94;38.57
26487;BME280;14425;56.136;40.360;2022-07-10T09:25:48;99123.81;;;30.84;38.04
26487;BME280;14425;56.136;40.360;2022-07-10T09:28:17;99123.06;;;30.82;38.04
26487;BME280;14425;56.136;40.360;2022-07-10T09:30:43;99121.00;;;31.49;37.30
26487;BME280;14425;56.136;40.360;2022-07-10T09:33:19;99121.63;;;31.69;36.93
26487;BME280;14425;56.136;40.360;2022-07-10T09:36:09;99121.19;;;31.91;36.71
26487;BME280;14425;56.136;40.360;2022-07-10T09:43:43;99118.22;;;31.81;36.72
26487;BME280;14425;56.136;40.360;2022-07-10T09:46:10;99119.44;;;31.61;37.09
26487;BME280;14425;56.136;40.360;2022-07-10T09:48:37;99119.13;;;32.39;36.26
26487;BME280;14425;56.136;40.360;2022-07-10T09:51:07;99128.97;;;31.94;34.88
26487;BME280;14425;56.136;40.360;2022-07-10T09:53:41;99128.72;;;31.08;36.66
26487;BME280;14425;56.136;40.360;2022-07-10T09:56:08;99128.19;;;31.63;35.13
26487;BME280;14425;56.136;40.360;2022-07-10T09:58:35;99131.88;;;31.30;35.01
26487;BME280;14425;56.136;40.360;2022-07-10T10:01:05;99133.91;;;31.41;34.94
26487;BME280;14425;56.136;40.360;2022-07-10T10:03:35;99135.34;;;31.47;34.60
26487;BME280;14425;56.136;40.360;2022-07-10T10:06:14;99125.31;;;31.52;35.45
26487;BME280;14425;56.136;40.360;2022-07-10T10:11:35;99123.13;;;32.88;33.61
26487;BME280;14425;56.136;40.360;2022-07-10T10:14:02;99114.34;;;33.13;32.69
26487;BME280;14425;56.136;40.360;2022-07-10T10:16:29;99125.25;;;33.38;32.47
26487;BME280;14425;56.136;40.360;2022-07-10T10:18:56;99117.44;;;32.80;32.42
26487;BME280;14425;56.136;40.360;2022-07-10T10:21:41;99121.56;;;32.57;32.18
26487;BME280;14425;56.136;40.360;2022-07-10T10:24:08;99126.63;;;33.03;32.05
26487;BME280;14425;56.136;40.360;2022-07-10T10:26:34;99122.53;;;32.27;32.46
26487;BME280;14425;56.136;40.360;2022-07-10T10:29:02;99114.53;;;32.41;31.89
26487;BME280;14425;56.136;40.360;2022-07-10T10:31:29;99123.09;;;32.47;31.96
26487;BME280;14425;56.136;40.360;2022-07-10T10:33:56;99119.88;;;32.97;31.32
26487;BME280;14425;56.136;40.360;2022-07-10T10:39:20;99125.22;;;32.27;32.19
26487;BME280;14425;56.136;40.360;2022-07-10T10:41:53;99125.75;;;31.89;32.01
26487;BME280;14425;56.136;40.360;2022-07-10T10:44:21;99118.50;;;32.49;32.21
26487;BME280;14425;56.136;40.360;2022-07-10T10:49:20;99112.19;;;33.73;31.83
26487;BME280;14425;56.136;40.360;2022-07-10T10:52:03;99118.28;;;33.75;31.91
26487;BME280;14425;56.136;40.360;2022-07-10T11:00:31;99111.41;;;33.18;32.19
26487;BME280;14425;56.136;40.360;2022-07-10T11:03:13;99117.38;;;32.53;32.27
26487;BME280;14425;56.136;40.360;2022-07-10T11:05:40;99110.97;;;32.55;31.89
26487;BME280;14425;56.136;40.360;2022-07-10T11:08:09;99106.81;;;32.66;32.08
26487;BME280;14425;56.136;40.360;2022-07-10T11:10:45;99118.34;;;32.93;31.88
26487;BME280;14425;56.136;40.360;2022-07-10T11:13:18;99117.53;;;32.78;31.34
26487;BME280;14425;56.136;40.360;2022-07-10T11:15:48;99123.28;;;32.58;31.29
26487;BME280;14425;56.136;40.360;2022-07-10T11:18:19;99113.13;;;33.19;30.90
26487;BME280;14425;56.136;40.360;2022-07-10T11:20:51;99124.53;;;32.67;30.57
26487;BME280;14425;56.136;40.360;2022-07-10T11:26:48;99117.03;;;32.86;31.42
26487;BME280;14425;56.136;40.360;2022-07-10T11:29:17;99106.22;;;33.82;32.23
26487;BME280;14425;56.136;40.360;2022-07-10T11:31:52;99110.50;;;33.05;32.16
26487;BME280;14425;56.136;40.360;2022-07-10T11:34:18;99111.28;;;32.51;32.74
26487;BME280;14425;56.136;40.360;2022-07-10T11:36:47;99114.91;;;31.01;33.71
26487;BME280;14425;56.136;40.360;2022-07-10T11:39:13;99120.81;;;30.90;33.04
26487;BME280;14425;56.136;40.360;2022-07-10T11:41:44;99120.78;;;31.68;31.39
26487;BME280;14425;56.136;40.360;2022-07-10T11:44:14;99117.94;;;31.41;32.25
26487;BME280;14425;56.136;40.360;2022-07-10T11:46:43;99107.47;;;32.55;31.21
26487;BME280;14425;56.136;40.360;2022-07-10T11:49:15;99109.78;;;32.88;31.37
26487;BME280;14425;56.136;40.360;2022-07-10T11:51:42;99105.00;;;32.37;30.01
26487;BME280;14425;56.136;40.360;2022-07-10T11:54:16;99110.63;;;32.89;30.05
26487;BME280;14425;56.136;40.360;2022-07-10T11:56:49;99111.09;;;32.68;30.21
26487;BME280;14425;56.136;40.360;2022-07-10T11:59:15;99113.56;;;32.57;30.16
26487;BME280;14425;56.136;40.360;2022-07-10T12:01:46;99117.59;;;32.07;31.63
26487;BME280;14425;56.136;40.360;2022-07-10T12:04:13;99110.97;;;31.39;32.38
26487;BME280;14425;56.136;40.360;2022-07-10T12:06:41;99110.50;;;32.05;32.14
26487;BME280;14425;56.136;40.360;2022-07-10T12:09:13;99100.06;;;32.17;32.03
26487;BME280;14425;56.136;40.360;2022-07-10T12:11:43;99104.75;;;32.13;32.17
26487;BME280;14425;56.136;40.360;2022-07-10T12:14:13;99096.41;;;32.61;32.15
26487;BME280;14425;56.136;40.360;2022-07-10T12:16:41;99097.03;;;32.23;32.93
26487;BME280;14425;56.136;40.360;2022-07-10T12:19:16;99102.31;;;32.37;32.80
26487;BME280;14425;56.136;40.360;2022-07-10T12:21:43;99100.44;;;32.11;33.35
26487;BME280;14425;56.136;40.360;2022-07-10T12:24:09;99090.44;;;32.29;33.35
26487;BME280;14425;56.136;40.360;2022-07-10T12:26:40;99094.56;;;32.20;32.49
26487;BME280;14425;56.136;40.360;2022-07-10T12:29:13;99091.59;;;32.10;32.75
26487;BME280;14425;56.136;40.360;2022-07-10T12:31:44;99095.69;;;32.01;33.59
26487;BME280;14425;56.136;40.360;2022-07-10T12:34:11;99102.91;;;32.42;32.11
26487;BME280;14425;56.136;40.360;2022-07-10T12:36:45;99093.16;;;31.55;32.80
26487;BME280;14425;56.136;40.360;2022-07-10T12:39:16;99093.00;;;31.87;33.05
26487;BME280;14425;56.136;40.360;2022-07-10T12:47:19;99072.91;;;33.08;31.77
26487;BME280;14425;56.136;40.360;2022-07-10T12:52:36;99071.59;;;33.54;31.30
26487;BME280;14425;56.136;40.360;2022-07-10T13:00:35;99080.41;;;32.32;33.47
26487;BME280;14425;56.136;40.360;2022-07-10T13:03:07;99077.59;;;32.21;33.64
26487;BME280;14425;56.136;40.360;2022-07-10T13:05:38;99084.84;;;32.60;33.21
26487;BME280;14425;56.136;40.360;2022-07-10T13:08:17;99061.91;;;32.72;34.02
26487;BME280;14425;56.136;40.360;2022-07-10T13:10:55;99068.72;;;32.76;33.00
26487;BME280;14425;56.136;40.360;2022-07-10T13:13:22;99075.97;;;32.33;33.46
26487;BME280;14425;56.136;40.360;2022-07-10T13:15:48;99066.97;;;32.63;32.27
26487;BME280;14425;56.136;40.360;2022-07-10T13:18:24;99055.88;;;33.36;32.56
26487;BME280;14425;56.136;40.360;2022-07-10T13:20:56;99047.84;;;34.39;31.94
26487;BME280;14425;56.136;40.360;2022-07-10T13:23:24;99053.97;;;33.51;32.05
26487;BME280;14425;56.136;40.360;2022-07-10T13:25:52;99060.97;;;31.73;34.31
26487;BME280;14425;56.136;40.360;2022-07-10T13:28:18;99053.22;;;32.13;33.97